createdAt,value
2018-12-18T00:02:22.254Z,583.38
2018-12-18T00:04:51.594Z,588.37
2018-12-18T00:07:19.958Z,581.00
2018-12-18T00:09:48.444Z,589.40
2018-12-18T00:12:17.860Z,585.58
2018-12-18T00:14:46.315Z,588.87
2018-12-18T00:17:15.143Z,580.90
2018-12-18T00:19:44.569Z,579.53
2018-12-18T00:22:12.939Z,589.35
2018-12-18T00:24:42.705Z,576.73
2018-12-18T00:27:11.023Z,577.65
2018-12-18T00:29:39.527Z,586.05
2018-12-18T00:32:07.952Z,580.08
2018-12-18T00:34:36.341Z,571.08
2018-12-18T00:37:04.743Z,571.77
2018-12-18T00:39:33.173Z,572.15
2018-12-18T00:42:01.741Z,573.67
2018-12-18T00:44:30.149Z,568.45
2018-12-18T00:47:00.437Z,571.85
2018-12-18T00:49:28.860Z,568.73
2018-12-18T00:51:57.290Z,569.02
2018-12-18T00:54:25.618Z,563.98
2018-12-18T00:56:53.934Z,563.60
2018-12-18T00:59:22.375Z,573.75
2018-12-18T01:01:56.307Z,564.30
2018-12-18T01:04:25.668Z,564.63
2018-12-18T01:06:54.138Z,564.63
2018-12-18T01:09:22.432Z,559.63
2018-12-18T01:11:50.926Z,562.58
2018-12-18T01:14:19.720Z,559.45
2018-12-18T01:16:48.223Z,559.27
2018-12-18T01:19:16.671Z,553.65
2018-12-18T01:21:45.490Z,559.75
2018-12-18T01:27:11.912Z,557.83
2018-12-18T01:29:40.376Z,554.67
2018-12-18T01:32:08.753Z,558.27
2018-12-18T01:34:37.084Z,557.55
2018-12-18T01:37:06.368Z,562.95
2018-12-18T01:39:34.752Z,557.65
2018-12-18T01:42:03.851Z,562.63
2018-12-18T01:44:32.206Z,558.20
2018-12-18T01:47:00.575Z,555.87
2018-12-18T01:49:29.469Z,556.85
2018-12-18T01:51:57.912Z,556.75
2018-12-18T01:54:26.387Z,548.08
2018-12-18T01:56:54.779Z,556.60
2018-12-18T01:59:23.146Z,550.60
2018-12-18T02:01:51.630Z,554.30
2018-12-18T02:04:19.956Z,558.90
2018-12-18T02:06:49.063Z,551.75
2018-12-18T02:09:17.386Z,559.37
2018-12-18T02:11:45.855Z,558.07
2018-12-18T02:14:15.087Z,550.53
2018-12-18T02:16:43.448Z,553.50
2018-12-18T02:19:13.298Z,558.35
2018-12-18T02:21:41.716Z,565.38
2018-12-18T02:24:10.862Z,552.70
2018-12-18T02:26:39.976Z,543.75
2018-12-18T02:29:08.473Z,540.57
2018-12-18T02:31:37.701Z,541.90
2018-12-18T02:34:13.499Z,541.27
2018-12-18T02:36:37.524Z,549.00
2018-12-18T02:39:06.807Z,545.40
2018-12-18T02:41:35.246Z,545.10
2018-12-18T02:44:03.798Z,548.00
2018-12-18T02:46:33.121Z,542.53
2018-12-18T02:49:02.409Z,552.55
2018-12-18T02:51:30.863Z,547.40
2018-12-18T02:53:59.230Z,546.40
2018-12-18T02:56:28.637Z,543.73
2018-12-18T02:58:57.062Z,545.92
2018-12-18T03:01:26.225Z,543.45
2018-12-18T03:03:56.372Z,542.77
2018-12-18T03:06:24.763Z,545.10
2018-12-18T03:08:53.133Z,539.90
2018-12-18T03:11:21.452Z,536.20
2018-12-18T03:13:49.834Z,536.55
2018-12-18T03:16:18.181Z,538.10
2018-12-18T03:18:47.135Z,538.93
2018-12-18T03:21:16.123Z,544.20
2018-12-18T03:23:44.640Z,539.78
2018-12-18T03:26:12.973Z,543.90
2018-12-18T03:28:41.490Z,542.33
2018-12-18T03:31:11.201Z,553.02
2018-12-18T03:33:41.185Z,546.95
2018-12-18T03:36:09.553Z,539.52
2018-12-18T03:38:37.975Z,547.87
2018-12-18T03:41:06.537Z,539.37
2018-12-18T03:43:34.958Z,533.23
2018-12-18T03:46:03.627Z,538.85
2018-12-18T03:48:32.017Z,539.65
2018-12-18T03:51:00.454Z,538.30
2018-12-18T03:53:28.782Z,549.10
2018-12-18T03:55:58.419Z,544.23
2018-12-18T03:58:26.890Z,532.67
2018-12-18T04:00:55.236Z,531.30
2018-12-18T04:03:24.088Z,532.27
2018-12-18T04:05:52.449Z,541.58
2018-12-18T04:08:21.613Z,537.23
2018-12-18T04:10:51.005Z,536.60
2018-12-18T04:13:19.408Z,532.47
2018-12-18T04:15:47.930Z,535.23
2018-12-18T04:18:16.401Z,538.33
2018-12-18T04:20:45.709Z,540.38
2018-12-18T04:23:15.100Z,538.87
2018-12-18T04:25:44.491Z,540.75
2018-12-18T04:28:12.863Z,538.70
2018-12-18T04:30:41.263Z,543.00
2018-12-18T04:33:09.701Z,541.35
2018-12-18T04:35:38.087Z,539.78
2018-12-18T04:38:06.476Z,543.67
2018-12-18T04:40:34.810Z,543.07
2018-12-18T04:46:00.360Z,548.02
2018-12-18T04:48:28.766Z,541.62
2018-12-18T04:50:57.155Z,544.05
2018-12-18T04:53:25.462Z,546.72
2018-12-18T04:55:53.937Z,541.03
2018-12-18T04:58:22.260Z,529.85
2018-12-18T05:00:50.705Z,530.83
2018-12-18T05:03:19.198Z,531.17
2018-12-18T05:05:47.599Z,532.05
2018-12-18T05:08:16.013Z,543.92
2018-12-18T05:10:44.414Z,532.83
2018-12-18T05:13:12.759Z,532.58
2018-12-18T05:15:41.278Z,529.95
2018-12-18T05:18:09.661Z,535.10
2018-12-18T05:20:37.983Z,532.55
2018-12-18T05:23:06.381Z,542.80
2018-12-18T05:25:34.813Z,537.08
2018-12-18T05:28:03.152Z,534.15
2018-12-18T05:30:31.456Z,537.55
2018-12-18T05:32:59.879Z,542.27
2018-12-18T05:35:31.181Z,534.90
2018-12-18T05:37:59.715Z,542.35
2018-12-18T05:40:28.199Z,541.17
2018-12-18T05:42:56.515Z,537.42
2018-12-18T05:45:24.861Z,539.55
2018-12-18T05:47:53.204Z,531.90
2018-12-18T05:50:21.754Z,536.40
2018-12-18T05:52:50.187Z,536.20
2018-12-18T05:55:18.560Z,533.60
2018-12-18T05:57:47.006Z,531.65
2018-12-18T06:00:15.483Z,530.60
2018-12-18T06:02:43.906Z,532.02
2018-12-18T06:05:12.495Z,532.33
2018-12-18T06:07:41.480Z,529.25
2018-12-18T06:10:10.814Z,532.57
2018-12-18T06:12:39.269Z,531.63
2018-12-18T06:15:07.719Z,526.75
2018-12-18T06:17:36.155Z,531.90
2018-12-18T06:20:04.865Z,525.30
2018-12-18T06:22:33.914Z,530.80
2018-12-18T06:25:02.307Z,525.92
2018-12-18T06:27:30.840Z,525.72
2018-12-18T06:29:59.142Z,527.10
2018-12-18T06:32:27.625Z,523.00
2018-12-18T06:34:56.083Z,536.52
2018-12-18T06:37:24.751Z,538.30
2018-12-18T06:39:53.161Z,530.58
2018-12-18T06:42:21.585Z,525.05
2018-12-18T06:44:50.058Z,520.60
2018-12-18T06:47:18.386Z,517.77
2018-12-18T06:49:46.729Z,518.02
2018-12-18T06:52:15.068Z,521.08
2018-12-18T06:54:43.483Z,526.95
2018-12-18T06:57:11.825Z,526.27
2018-12-18T06:59:40.282Z,515.23
2018-12-18T07:02:08.641Z,512.92
2018-12-18T07:04:36.966Z,510.27
2018-12-18T07:07:05.302Z,509.30
2018-12-18T07:09:35.156Z,519.02
2018-12-18T07:12:03.595Z,523.47
2018-12-18T07:14:32.033Z,513.22
2018-12-18T07:17:01.294Z,518.52
2018-12-18T07:19:29.621Z,520.20
2018-12-18T07:21:58.914Z,522.70
2018-12-18T07:24:27.308Z,528.48
2018-12-18T07:26:55.670Z,527.45
2018-12-18T07:29:24.028Z,530.20
2018-12-18T07:31:52.425Z,527.83
2018-12-18T07:34:20.781Z,523.23
2018-12-18T07:36:49.200Z,529.80
2018-12-18T07:39:17.694Z,527.25
2018-12-18T07:41:46.092Z,527.73
2018-12-18T07:47:11.545Z,525.42
2018-12-18T07:49:39.828Z,530.92
2018-12-18T07:55:05.414Z,532.67
2018-12-18T07:57:33.965Z,537.08
2018-12-18T08:00:02.382Z,527.78
2018-12-18T08:02:30.826Z,530.50
2018-12-18T08:04:59.186Z,526.55
2018-12-18T08:07:27.515Z,526.77
2018-12-18T08:09:55.831Z,531.43
2018-12-18T08:12:25.981Z,527.90
2018-12-18T08:14:54.441Z,530.65
2018-12-18T08:17:22.743Z,526.92
2018-12-18T08:19:51.669Z,527.10
2018-12-18T08:22:20.011Z,531.37
2018-12-18T08:24:48.321Z,546.33
2018-12-18T08:27:16.793Z,541.38
2018-12-18T08:29:45.225Z,532.50
2018-12-18T08:32:14.221Z,517.27
2018-12-18T08:34:42.632Z,543.15
2018-12-18T08:37:11.170Z,521.53
2018-12-18T08:39:39.882Z,523.95
2018-12-18T08:42:08.802Z,526.00
2018-12-18T08:44:37.229Z,525.53
2018-12-18T08:47:05.658Z,532.17
2018-12-18T08:49:34.217Z,536.42
2018-12-18T08:52:02.532Z,535.25
2018-12-18T08:54:31.013Z,538.55
2018-12-18T08:56:59.337Z,545.15
2018-12-18T08:59:27.735Z,550.05
2018-12-18T09:01:56.309Z,553.35
2018-12-18T09:04:24.599Z,550.47
2018-12-18T09:06:53.192Z,553.12
2018-12-18T09:09:21.555Z,541.50
2018-12-18T09:11:49.980Z,545.65
2018-12-18T09:14:18.973Z,542.17
2018-12-18T09:16:53.005Z,544.08
2018-12-18T09:19:22.359Z,554.20
2018-12-18T09:21:50.684Z,554.80
2018-12-18T09:24:19.088Z,550.70
2018-12-18T09:26:47.432Z,547.33
2018-12-18T09:29:15.842Z,550.33
2018-12-18T09:31:44.296Z,555.90
2018-12-18T09:34:12.740Z,562.15
2018-12-18T09:36:41.053Z,566.73
2018-12-18T09:39:16.032Z,569.15
2018-12-18T09:41:46.302Z,565.30
2018-12-18T09:44:15.826Z,559.90
2018-12-18T09:46:44.147Z,552.33
2018-12-18T09:49:12.434Z,557.55
2018-12-18T09:51:40.898Z,566.17
2018-12-18T09:54:09.364Z,548.37
2018-12-18T09:56:43.462Z,556.45
2018-12-18T09:59:11.894Z,527.47
2018-12-18T10:01:40.443Z,506.37
2018-12-18T10:04:09.345Z,508.38
2018-12-18T10:06:37.780Z,519.45
2018-12-18T10:09:09.798Z,538.50
2018-12-18T10:11:37.288Z,524.98
2018-12-18T10:14:06.674Z,531.02
2018-12-18T10:16:35.040Z,526.27
2018-12-18T10:19:03.556Z,537.52
2018-12-18T10:21:31.881Z,537.38
2018-12-18T10:24:00.354Z,535.07
2018-12-18T10:26:28.729Z,539.87
2018-12-18T10:28:57.778Z,565.60
2018-12-18T10:31:26.454Z,530.35
2018-12-18T10:33:54.762Z,530.48
2018-12-18T10:36:23.249Z,548.33
2018-12-18T10:38:51.723Z,565.55
2018-12-18T10:41:22.707Z,542.00
2018-12-18T10:43:51.982Z,562.95
2018-12-18T10:46:20.311Z,554.75
2018-12-18T10:48:48.722Z,542.48
2018-12-18T10:51:17.287Z,555.40
2018-12-18T10:53:46.598Z,549.02
2018-12-18T10:56:14.917Z,574.23
2018-12-18T10:58:43.348Z,539.90
2018-12-18T11:01:15.764Z,541.77
2018-12-18T11:06:42.515Z,584.85
2018-12-18T11:09:11.106Z,561.63
2018-12-18T11:11:39.472Z,549.27
2018-12-18T11:14:07.962Z,555.08
2018-12-18T11:16:37.517Z,553.88
2018-12-18T11:19:06.098Z,587.63
2018-12-18T11:21:34.546Z,544.92
2018-12-18T11:24:03.037Z,543.17
2018-12-18T11:26:31.443Z,541.45
2018-12-18T11:28:59.770Z,539.52
2018-12-18T11:31:28.240Z,551.33
2018-12-18T11:33:56.639Z,546.97
2018-12-18T11:36:24.972Z,559.27
2018-12-18T11:38:53.419Z,548.10
2018-12-18T11:41:21.727Z,549.15
2018-12-18T11:43:50.023Z,547.45
2018-12-18T11:46:18.402Z,570.05
2018-12-18T11:48:46.776Z,555.10
2018-12-18T11:51:15.854Z,582.30
2018-12-18T11:53:44.260Z,555.77
2018-12-18T11:56:13.199Z,568.95
2018-12-18T11:58:41.651Z,566.30
2018-12-18T12:01:09.993Z,547.63
2018-12-18T12:03:38.423Z,547.80
2018-12-18T12:06:06.758Z,547.87
2018-12-18T12:08:35.080Z,552.55
2018-12-18T12:11:03.497Z,559.58
2018-12-18T12:13:31.893Z,549.23
2018-12-18T12:16:00.236Z,557.75
2018-12-18T12:18:28.650Z,548.90
2018-12-18T12:20:56.962Z,552.80
2018-12-18T12:23:25.922Z,555.65
2018-12-18T12:25:54.369Z,563.75
2018-12-18T12:28:23.395Z,561.30
2018-12-18T12:30:51.820Z,567.87
2018-12-18T12:34:01.827Z,552.20
2018-12-18T12:36:30.290Z,560.50
2018-12-18T12:38:58.736Z,556.23
2018-12-18T12:41:27.104Z,556.97
2018-12-18T12:43:55.524Z,554.17
2018-12-18T12:46:24.004Z,553.42
2018-12-18T12:48:54.953Z,553.13
2018-12-18T12:51:23.377Z,561.60
2018-12-18T12:53:51.845Z,552.75
2018-12-18T12:56:20.197Z,549.35
2018-12-18T12:58:49.476Z,555.83
2018-12-18T13:01:17.864Z,563.60
2018-12-18T13:03:46.192Z,568.80
2018-12-18T13:06:15.432Z,560.15
2018-12-18T13:08:44.009Z,559.25
2018-12-18T13:11:12.437Z,572.98
2018-12-18T13:13:41.243Z,554.62
2018-12-18T13:16:10.569Z,566.75
2018-12-18T13:18:38.926Z,558.10
2018-12-18T13:21:07.351Z,557.55
2018-12-18T13:23:35.825Z,557.73
2018-12-18T13:26:04.264Z,558.60
2018-12-18T13:28:32.638Z,555.73
2018-12-18T13:31:01.088Z,570.62
2018-12-18T13:33:30.298Z,551.70
2018-12-18T13:35:59.252Z,570.57
2018-12-18T13:38:27.638Z,572.57
2018-12-18T13:40:56.053Z,560.52
2018-12-18T13:43:24.425Z,557.90
2018-12-18T13:45:52.750Z,549.70
2018-12-18T13:48:21.139Z,556.65
2018-12-18T13:50:49.505Z,569.20
2018-12-18T13:53:17.989Z,559.95
2018-12-18T13:55:46.308Z,563.15
2018-12-18T13:58:15.666Z,564.87
2018-12-18T14:00:44.086Z,561.75
2018-12-18T14:03:12.373Z,565.88
2018-12-18T14:05:40.793Z,561.20
2018-12-18T14:08:09.777Z,566.50
2018-12-18T14:10:38.141Z,567.48
2018-12-18T14:13:06.505Z,563.40
2018-12-18T14:15:34.877Z,562.30
2018-12-18T14:18:03.345Z,575.75
2018-12-18T14:20:33.542Z,568.60
2018-12-18T14:23:01.874Z,555.83
2018-12-18T14:25:30.335Z,562.25
2018-12-18T14:27:58.735Z,558.38
2018-12-18T14:30:27.034Z,562.77
2018-12-18T14:32:55.460Z,572.05
2018-12-18T14:35:23.779Z,557.45
2018-12-18T14:37:52.694Z,567.08
2018-12-18T14:40:21.036Z,557.80
2018-12-18T14:42:49.482Z,560.30
2018-12-18T14:45:17.894Z,550.50
2018-12-18T14:47:46.959Z,560.10
2018-12-18T14:50:15.456Z,556.60
2018-12-18T14:52:43.930Z,553.17
2018-12-18T14:55:12.273Z,561.75
2018-12-18T14:57:40.655Z,563.48
2018-12-18T15:00:09.209Z,566.65
2018-12-18T15:02:37.555Z,562.40
2018-12-18T15:05:05.963Z,561.62
2018-12-18T15:07:34.511Z,563.15
2018-12-18T15:10:02.902Z,561.28
2018-12-18T15:12:32.227Z,568.42
2018-12-18T15:15:01.241Z,571.80
2018-12-18T15:17:29.736Z,579.90
2018-12-18T15:19:58.108Z,594.17
2018-12-18T15:22:28.023Z,596.77
2018-12-18T15:24:56.390Z,582.12
2018-12-18T15:27:24.770Z,593.48
2018-12-18T15:29:53.110Z,593.37
2018-12-18T15:32:21.891Z,594.40
2018-12-18T15:34:50.247Z,600.77
2018-12-18T15:37:18.685Z,589.35
2018-12-18T15:39:46.993Z,583.60
2018-12-18T15:42:15.366Z,590.88
2018-12-18T15:44:43.682Z,585.57
2018-12-18T15:47:12.472Z,587.30
2018-12-18T15:49:40.843Z,592.48
2018-12-18T15:52:09.954Z,582.27
2018-12-18T15:54:38.359Z,582.25
2018-12-18T15:57:06.868Z,578.50
2018-12-18T15:59:35.235Z,573.52
2018-12-18T16:02:03.832Z,596.35
2018-12-18T16:04:32.237Z,562.87
2018-12-18T16:07:00.700Z,563.12
2018-12-18T16:09:29.080Z,564.92
2018-12-18T16:11:57.445Z,571.22
2018-12-18T16:14:25.985Z,572.60
2018-12-18T16:16:54.352Z,563.83
2018-12-18T16:19:23.076Z,569.10
2018-12-18T16:21:51.678Z,565.42
2018-12-18T16:24:21.056Z,569.90
2018-12-18T16:26:49.464Z,562.75
2018-12-18T16:29:17.853Z,570.80
2018-12-18T16:31:47.653Z,564.77
2018-12-18T16:34:16.002Z,566.15
2018-12-18T16:36:45.330Z,566.60
2018-12-18T16:39:13.757Z,559.57
2018-12-18T16:41:42.210Z,566.60
2018-12-18T16:44:10.688Z,567.83
2018-12-18T16:46:39.125Z,560.80
2018-12-18T16:49:07.665Z,568.80
2018-12-18T16:51:36.277Z,572.77
2018-12-18T16:54:04.854Z,567.17
2018-12-18T16:56:33.740Z,560.20
2018-12-18T16:59:03.272Z,569.17
2018-12-18T17:01:31.640Z,559.45
2018-12-18T17:03:59.953Z,562.92
2018-12-18T17:06:28.321Z,566.65
2018-12-18T17:08:56.625Z,579.53
2018-12-18T17:11:25.093Z,577.92
2018-12-18T17:13:53.720Z,581.02
2018-12-18T17:16:22.140Z,586.83
2018-12-18T17:18:50.622Z,575.98
2018-12-18T17:21:19.042Z,567.10
2018-12-18T17:23:47.532Z,566.80
2018-12-18T17:26:16.901Z,568.33
2018-12-18T17:28:45.377Z,573.88
2018-12-18T17:31:13.903Z,568.55
2018-12-18T17:33:42.252Z,581.00
2018-12-18T17:36:10.584Z,578.70
2018-12-18T17:38:39.040Z,575.40
2018-12-18T17:41:07.438Z,576.00
2018-12-18T17:43:36.292Z,566.38
2018-12-18T17:46:04.759Z,712.95
2018-12-18T17:48:33.076Z,852.08
2018-12-18T17:51:01.489Z,816.00
2018-12-18T17:53:29.898Z,580.03
2018-12-18T17:55:58.206Z,664.10
2018-12-18T17:58:26.614Z,601.05
2018-12-18T18:00:54.963Z,597.20
2018-12-18T18:03:23.309Z,669.20
2018-12-18T18:05:51.782Z,576.17
2018-12-18T18:08:20.176Z,649.95
2018-12-18T18:10:48.692Z,595.15
2018-12-18T18:13:17.733Z,569.57
2018-12-18T18:15:46.096Z,600.40
2018-12-18T18:18:16.203Z,595.83
2018-12-18T18:20:44.559Z,582.38
2018-12-18T18:23:13.065Z,581.78
2018-12-18T18:25:41.363Z,584.70
2018-12-18T18:28:10.025Z,586.00
2018-12-18T18:30:38.460Z,637.15
2018-12-18T18:33:07.589Z,601.52
2018-12-18T18:35:35.960Z,593.40
2018-12-18T18:38:04.300Z,602.60
2018-12-18T18:40:32.768Z,614.65
2018-12-18T18:43:01.099Z,582.90
2018-12-18T18:45:29.533Z,589.67
2018-12-18T18:47:57.933Z,588.90
2018-12-18T18:50:26.278Z,619.15
2018-12-18T18:52:54.805Z,574.67
2018-12-18T18:55:23.286Z,577.65
2018-12-18T18:57:51.795Z,569.60
2018-12-18T19:00:20.210Z,561.62
2018-12-18T19:02:48.651Z,574.15
2018-12-18T19:05:17.073Z,560.65
2018-12-18T19:07:46.863Z,571.10
2018-12-18T19:10:16.338Z,569.95
2018-12-18T19:12:45.554Z,573.35
2018-12-18T19:15:14.660Z,572.42
2018-12-18T19:17:43.028Z,555.35
2018-12-18T19:20:11.589Z,554.53
2018-12-18T19:22:40.886Z,561.20
2018-12-18T19:25:09.336Z,562.40
2018-12-18T19:27:37.788Z,564.58
2018-12-18T19:30:06.810Z,579.10
2018-12-18T19:32:35.231Z,579.17
2018-12-18T19:35:04.266Z,677.70
2018-12-18T19:37:32.574Z,598.95
2018-12-18T19:40:00.993Z,609.03
2018-12-18T19:42:29.472Z,586.25
2018-12-18T19:44:57.930Z,583.23
2018-12-18T19:47:26.294Z,594.30
2018-12-18T19:49:54.679Z,650.38
2018-12-18T19:52:24.005Z,640.60
2018-12-18T19:54:52.499Z,583.90
2018-12-18T19:57:20.916Z,591.83
2018-12-18T19:59:50.707Z,574.45
2018-12-18T20:02:20.092Z,578.98
2018-12-18T20:04:48.530Z,562.17
2018-12-18T20:07:17.607Z,553.38
2018-12-18T20:09:45.976Z,540.83
2018-12-18T20:12:14.283Z,543.73
2018-12-18T20:14:42.735Z,548.33
2018-12-18T20:17:12.685Z,553.95
2018-12-18T20:19:41.651Z,534.90
2018-12-18T20:22:09.948Z,544.10
2018-12-18T20:24:38.342Z,536.05
2018-12-18T20:27:06.670Z,538.20
2018-12-18T20:29:35.117Z,525.85
2018-12-18T20:32:03.689Z,533.60
2018-12-18T20:34:32.136Z,524.75
2018-12-18T20:37:00.440Z,529.33
2018-12-18T20:39:28.815Z,528.12
2018-12-18T20:41:57.177Z,533.95
2018-12-18T20:44:26.088Z,528.98
2018-12-18T20:46:54.504Z,532.95
2018-12-18T20:49:24.443Z,526.82
2018-12-18T20:51:52.802Z,523.58
2018-12-18T20:54:21.131Z,526.65
2018-12-18T20:56:49.563Z,523.92
2018-12-18T20:59:17.948Z,540.60
2018-12-18T21:01:46.308Z,531.93
2018-12-18T21:04:14.606Z,527.73
2018-12-18T21:06:43.018Z,530.20
2018-12-18T21:09:13.480Z,524.80
2018-12-18T21:11:41.935Z,536.12
2018-12-18T21:14:10.281Z,529.90
2018-12-18T21:16:38.776Z,525.92
2018-12-18T21:19:07.113Z,519.90
2018-12-18T21:21:36.486Z,528.65
2018-12-18T21:24:04.974Z,528.98
2018-12-18T21:26:33.358Z,523.33
2018-12-18T21:29:01.704Z,532.75
2018-12-18T21:31:30.740Z,526.77
2018-12-18T21:36:34.710Z,522.47
2018-12-18T21:39:05.165Z,523.70
2018-12-18T21:41:33.565Z,522.45
2018-12-18T21:44:01.892Z,521.10
2018-12-18T21:46:30.852Z,522.60
2018-12-18T21:48:59.171Z,515.12
2018-12-18T21:51:27.568Z,521.17
2018-12-18T21:53:55.943Z,521.12
2018-12-18T21:56:25.770Z,517.10
2018-12-18T21:58:54.125Z,522.27
2018-12-18T22:01:22.487Z,524.93
2018-12-18T22:03:50.798Z,518.48
2018-12-18T22:06:19.314Z,519.15
2018-12-18T22:08:47.800Z,524.85
2018-12-18T22:11:16.198Z,523.33
2018-12-18T22:13:44.562Z,528.12
2018-12-18T22:16:12.928Z,528.15
2018-12-18T22:18:41.293Z,524.42
2018-12-18T22:21:09.719Z,521.45
2018-12-18T22:23:38.027Z,520.83
2018-12-18T22:26:06.471Z,524.12
2018-12-18T22:28:34.842Z,515.52
2018-12-18T22:31:03.197Z,522.30
2018-12-18T22:33:31.519Z,520.65
2018-12-18T22:35:59.935Z,518.92
2018-12-18T22:38:28.437Z,520.62
2018-12-18T22:40:56.793Z,519.70
2018-12-18T22:43:25.261Z,522.45
2018-12-18T22:45:53.625Z,517.85
2018-12-18T22:48:21.970Z,518.37
2018-12-18T22:50:50.366Z,520.52
2018-12-18T22:53:19.320Z,515.65
2018-12-18T22:55:48.646Z,510.57
2018-12-18T22:58:17.087Z,517.83
2018-12-18T23:00:50.869Z,526.10
2018-12-18T23:03:19.262Z,519.05
2018-12-18T23:05:47.691Z,523.20
2018-12-18T23:08:16.187Z,529.15
2018-12-18T23:10:44.488Z,514.48
2018-12-18T23:13:15.016Z,522.15
2018-12-18T23:15:43.489Z,528.92
2018-12-18T23:18:11.873Z,529.25
2018-12-18T23:20:40.172Z,537.55
2018-12-18T23:23:09.410Z,530.55
2018-12-18T23:25:38.376Z,532.98
2018-12-18T23:28:06.757Z,539.92
2018-12-18T23:30:37.042Z,542.72
2018-12-18T23:33:05.525Z,536.35
2018-12-18T23:35:33.831Z,535.78
2018-12-18T23:38:02.374Z,537.48
2018-12-18T23:40:31.640Z,543.05
2018-12-18T23:42:59.980Z,550.62
2018-12-18T23:45:28.372Z,538.10
2018-12-18T23:47:56.749Z,533.33
2018-12-18T23:50:25.175Z,530.00
2018-12-18T23:52:54.137Z,518.23
2018-12-18T23:55:22.439Z,520.17
2018-12-18T23:57:50.807Z,520.27
